Time;durP1;ratioP1;P1;durP2;ratioP2;P2;SDS_P1;SDS_P2;PMS_P1;PMS_P2;Temp;Humidity;BMP_temperature;BMP_pressure;BME280_temperature;BME280_humidity;BME280_pressure;Samples;Min_cycle;Max_cycle;Signal;HPM_P1;HPM_P2
2023/01/22 00:00:06;;;;;;;20.97;13.10;;;;;;;-0.38;100.00;101698.72;5004360;28;20484;-79
2023/01/22 00:02:34;;;;;;;23.50;13.73;;;;;;;-0.30;100.00;101709.03;4998164;28;20522;-79
2023/01/22 00:05:01;;;;;;;20.83;13.73;;;;;;;-0.28;100.00;101697.63;4998641;28;20500;-80
2023/01/22 00:07:28;;;;;;;20.47;14.27;;;;;;;-0.33;100.00;101685.47;4998305;28;20484;-79
2023/01/22 00:09:54;;;;;;;19.30;11.80;;;;;;;-0.20;100.00;101686.91;5003411;28;20490;-81
2023/01/22 00:12:21;;;;;;;23.13;14.93;;;;;;;-0.25;100.00;101680.91;4992292;28;20503;-82
2023/01/22 00:14:49;;;;;;;18.60;12.63;;;;;;;-0.25;100.00;101679.13;4995255;28;20436;-80
2023/01/22 00:17:16;;;;;;;19.70;14.03;;;;;;;-0.19;100.00;101678.13;5000672;28;20487;-82
2023/01/22 00:19:47;;;;;;;22.60;15.00;;;;;;;-0.22;100.00;101675.56;5003119;28;20515;-79
2023/01/22 00:22:14;;;;;;;22.53;14.13;;;;;;;-0.14;100.00;101681.53;5001440;28;20488;-79
2023/01/22 00:24:42;;;;;;;22.30;14.30;;;;;;;-0.09;100.00;101673.50;5003161;28;20475;-79
2023/01/22 00:27:14;;;;;;;22.37;14.30;;;;;;;-0.18;100.00;101663.22;5003524;28;20468;-80
2023/01/22 00:29:48;;;;;;;21.23;14.73;;;;;;;-0.26;100.00;101671.28;5002972;28;20480;-78
2023/01/22 00:32:19;;;;;;;25.37;16.00;;;;;;;-0.09;100.00;101673.50;5002220;28;20506;-77
2023/01/22 00:34:51;;;;;;;23.27;14.70;;;;;;;-0.29;100.00;101672.22;5002654;28;20488;-80
2023/01/22 00:37:19;;;;;;;25.70;15.10;;;;;;;-0.19;100.00;101672.88;5002033;28;20484;-80
2023/01/22 00:39:45;;;;;;;22.30;15.77;;;;;;;-0.30;100.00;101669.63;5003349;28;20460;-78
2023/01/22 00:42:12;;;;;;;23.63;14.70;;;;;;;-0.18;100.00;101661.44;5002314;28;20512;-79
2023/01/22 00:44:38;;;;;;;22.90;14.47;;;;;;;-0.29;100.00;101666.13;5003414;28;20479;-80
2023/01/22 00:47:05;;;;;;;24.07;15.90;;;;;;;-0.36;100.00;101682.88;5002329;28;21099;-80
2023/01/22 00:49:33;;;;;;;28.00;18.23;;;;;;;-0.45;100.00;101666.47;5003115;28;21043;-80
2023/01/22 00:52:00;;;;;;;25.07;15.30;;;;;;;-0.23;100.00;101669.44;5001750;28;20519;-80
2023/01/22 00:54:28;;;;;;;25.53;16.70;;;;;;;-0.28;100.00;101654.69;5002744;28;20452;-80
2023/01/22 00:56:55;;;;;;;32.53;16.10;;;;;;;-0.30;100.00;101661.75;4988191;28;20512;-81
2023/01/22 00:59:22;;;;;;;26.40;15.77;;;;;;;-0.38;100.00;101641.78;5003190;28;20476;-80
2023/01/22 01:01:49;;;;;;;30.30;15.77;;;;;;;-0.49;100.00;101650.78;4987928;28;20492;-78
2023/01/22 01:04:15;;;;;;;24.03;15.20;;;;;;;-0.33;100.00;101651.28;4994795;28;20456;-80
2023/01/22 01:06:43;;;;;;;29.40;14.67;;;;;;;-0.39;100.00;101658.41;4993672;28;20571;-80
2023/01/22 01:09:10;;;;;;;31.23;18.17;;;;;;;-0.43;100.00;101648.03;5002411;28;20492;-79
2023/01/22 01:11:37;;;;;;;26.53;15.70;;;;;;;-0.44;100.00;101646.31;4999684;28;20479;-79
2023/01/22 01:14:04;;;;;;;29.40;16.00;;;;;;;-0.45;100.00;101649.81;5002793;28;20515;-79
2023/01/22 01:16:32;;;;;;;32.50;17.83;;;;;;;-0.46;100.00;101648.09;5000939;28;20579;-80
2023/01/22 01:18:59;;;;;;;28.70;15.77;;;;;;;-0.36;100.00;101636.47;4983915;28;20528;-79
2023/01/22 01:21:25;;;;;;;26.23;17.20;;;;;;;-0.44;100.00;101647.16;4997526;28;20480;-79
2023/01/22 01:23:54;;;;;;;23.97;16.13;;;;;;;-0.53;100.00;101629.00;5001938;28;20466;-79
2023/01/22 01:26:21;;;;;;;26.60;16.60;;;;;;;-0.38;100.00;101631.25;4998753;28;20503;-79
2023/01/22 01:28:51;;;;;;;27.97;17.13;;;;;;;-0.32;100.00;101630.25;5003024;28;20480;-79
2023/01/22 01:31:18;;;;;;;26.43;16.60;;;;;;;-0.47;100.00;101635.84;4993300;28;20829;-79
2023/01/22 01:33:45;;;;;;;29.20;16.90;;;;;;;-0.32;100.00;101635.50;5003165;28;20470;-79
2023/01/22 01:36:14;;;;;;;29.53;16.93;;;;;;;-0.29;100.00;101629.31;4996838;28;20507;-77
2023/01/22 01:38:40;;;;;;;28.63;18.37;;;;;;;-0.44;100.00;101634.03;5001869;28;20479;-79
2023/01/22 01:41:10;;;;;;;33.93;18.23;;;;;;;-0.30;100.00;101632.84;5001925;28;20491;-78
2023/01/22 01:43:36;;;;;;;28.50;17.07;;;;;;;-0.25;100.00;101623.06;5002979;28;20432;-79
2023/01/22 01:46:04;;;;;;;28.23;17.63;;;;;;;-0.39;100.00;101631.28;4990757;28;20515;-79
2023/01/22 01:48:34;;;;;;;27.17;15.97;;;;;;;-0.40;100.00;101634.81;5002644;28;20545;-79
2023/01/22 01:51:04;;;;;;;29.73;18.50;;;;;;;-0.53;100.00;101642.13;4991079;28;20515;-79
2023/01/22 01:53:31;;;;;;;31.67;19.03;;;;;;;-0.48;100.00;101632.38;5001304;28;20479;-79
2023/01/22 01:55:59;;;;;;;33.10;22.03;;;;;;;-0.48;100.00;101647.28;4990935;28;20588;-81
2023/01/22 01:58:29;;;;;;;27.80;17.67;;;;;;;-0.26;100.00;101638.00;4993511;28;20520;-80
2023/01/22 02:00:59;;;;;;;28.03;16.93;;;;;;;-0.42;100.00;101624.38;5004418;28;20507;-79
2023/01/22 02:03:27;;;;;;;28.83;17.80;;;;;;;-0.34;100.00;101637.31;5006692;28;20487;-80
2023/01/22 02:05:53;;;;;;;30.97;18.00;;;;;;;-0.19;100.00;101641.34;4999932;28;20507;-79
2023/01/22 02:08:20;;;;;;;23.80;17.10;;;;;;;-0.23;100.00;101630.00;5006181;28;20546;-80
2023/01/22 02:10:47;;;;;;;31.77;17.07;;;;;;;-0.19;100.00;101628.19;4995414;28;20516;-78
2023/01/22 02:13:18;;;;;;;28.27;19.30;;;;;;;-0.44;100.00;101635.78;5004909;28;20471;-77
2023/01/22 02:15:46;;;;;;;29.40;17.60;;;;;;;-0.22;100.00;101654.53;4994404;28;20517;-79
2023/01/22 02:18:12;;;;;;;25.17;15.73;;;;;;;-0.23;100.00;101642.28;5002207;28;20491;-79
2023/01/22 02:20:49;;;;;;;27.63;16.73;;;;;;;-0.15;100.00;101644.75;4995219;28;20511;-77
2023/01/22 02:23:16;;;;;;;27.70;16.80;;;;;;;-0.11;100.00;101636.72;5004776;28;20479;-77
2023/01/22 02:25:42;;;;;;;30.20;18.07;;;;;;;-0.16;100.00;101643.00;5005604;28;20502;-79
2023/01/22 02:28:09;;;;;;;28.40;16.90;;;;;;;-0.15;100.00;101629.84;5004669;28;20452;-79
2023/01/22 02:30:36;;;;;;;29.37;17.10;;;;;;;-0.25;100.00;101641.47;5005703;28;20543;-78
2023/01/22 02:33:05;;;;;;;27.17;17.33;;;;;;;-0.16;100.00;101624.63;5005387;28;20464;-78
2023/01/22 02:35:32;;;;;;;24.30;16.30;;;;;;;-0.27;100.00;101631.00;4999399;28;20503;-77
2023/01/22 02:38:00;;;;;;;26.97;16.37;;;;;;;-0.32;100.00;101635.50;5005341;28;20574;-79
2023/01/22 02:40:28;;;;;;;26.43;17.60;;;;;;;-0.35;100.00;101637.34;5004621;28;20485;-79
2023/01/22 02:42:55;;;;;;;26.50;16.20;;;;;;;-0.20;100.00;101629.09;5005960;28;20444;-79
2023/01/22 02:45:22;;;;;;;28.03;16.20;;;;;;;-0.25;100.00;101629.19;4998148;28;20556;-79
2023/01/22 02:47:48;;;;;;;33.63;17.77;;;;;;;-0.30;100.00;101643.34;5005217;28;20464;-80
2023/01/22 02:50:15;;;;;;;25.80;16.50;;;;;;;-0.29;100.00;101642.47;5000229;28;20505;-80
2023/01/22 02:52:42;;;;;;;27.13;16.73;;;;;;;-0.16;100.00;101638.59;5001947;28;20500;-80
2023/01/22 02:55:10;;;;;;;27.13;16.63;;;;;;;-0.22;100.00;101633.53;5004589;28;20515;-79
2023/01/22 02:57:36;;;;;;;26.33;16.07;;;;;;;-0.18;100.00;101636.94;5004324;28;20507;-80
2023/01/22 03:00:04;;;;;;;26.80;17.67;;;;;;;-0.31;100.00;101631.97;5002529;28;20472;-79
2023/01/22 03:02:31;;;;;;;27.47;15.97;;;;;;;-0.22;100.00;101649.28;5000462;28;20507;-79
2023/01/22 03:05:02;;;;;;;28.03;16.33;;;;;;;-0.20;100.00;101647.47;5002859;28;20480;-79
2023/01/22 03:07:40;;;;;;;24.17;15.20;;;;;;;0.00;100.00;101639.13;5004190;28;20488;-79
2023/01/22 03:10:10;;;;;;;32.93;16.87;;;;;;;-0.14;100.00;101641.22;5003578;28;20472;-76
2023/01/22 03:23:36;;;;;;;19.60;14.03;;;;;;;-0.17;100.00;101634.28;4994653;28;20451;-80
2023/01/22 03:26:04;;;;;;;22.93;15.07;;;;;;;-0.14;100.00;101625.44;5001346;28;20510;-79
2023/01/22 03:28:31;;;;;;;19.83;13.07;;;;;;;-0.10;100.00;101621.84;5004469;28;20698;-80
2023/01/22 03:30:58;;;;;;;23.03;14.17;;;;;;;-0.21;100.00;101628.22;5004500;28;20518;-80
2023/01/22 03:33:25;;;;;;;26.20;14.57;;;;;;;-0.22;100.00;101625.63;5004899;28;20448;-80
2023/01/22 03:35:51;;;;;;;24.13;16.80;;;;;;;-0.21;100.00;101629.97;5002075;28;20566;-80
2023/01/22 03:38:18;;;;;;;19.97;13.23;;;;;;;-0.23;100.00;101626.53;5004098;28;20893;-80
2023/01/22 03:40:45;;;;;;;22.50;16.23;;;;;;;-0.20;100.00;101627.31;5001945;28;20525;-80
2023/01/22 03:43:13;;;;;;;20.40;14.30;;;;;;;-0.22;100.00;101620.38;5004667;28;20472;-80
2023/01/22 03:45:39;;;;;;;25.10;15.97;;;;;;;-0.19;100.00;101628.19;5003257;28;20574;-80
2023/01/22 03:48:06;;;;;;;20.97;15.10;;;;;;;-0.27;100.00;101617.84;5004545;28;20488;-80
2023/01/22 03:50:32;;;;;;;22.03;12.83;;;;;;;-0.27;100.00;101627.50;5000110;28;20489;-80
2023/01/22 03:52:59;;;;;;;23.23;14.87;;;;;;;-0.12;100.00;101624.50;5000869;28;20500;-81
2023/01/22 03:55:26;;;;;;;21.93;13.83;;;;;;;-0.20;100.00;101621.19;5002918;28;20480;-80
2023/01/22 03:57:52;;;;;;;20.40;13.90;;;;;;;-0.17;100.00;101622.88;5004201;28;20500;-79
2023/01/22 04:00:21;;;;;;;22.63;15.03;;;;;;;-0.19;100.00;101612.44;5003367;28;20448;-79
2023/01/22 04:02:48;;;;;;;29.90;17.83;;;;;;;-0.30;100.00;101632.84;5004688;28;20511;-78
2023/01/22 04:05:17;;;;;;;21.20;14.80;;;;;;;-0.20;100.00;101629.94;5000689;28;20454;-78
2023/01/22 04:07:44;;;;;;;21.17;14.13;;;;;;;-0.18;100.00;101626.41;5003797;28;20463;-77
2023/01/22 04:10:11;;;;;;;22.83;15.37;;;;;;;-0.24;100.00;101628.28;5003321;28;20544;-76
2023/01/22 04:12:37;;;;;;;25.00;14.37;;;;;;;-0.29;100.00;101626.69;4993323;28;20511;-79
2023/01/22 04:15:05;;;;;;;25.07;16.90;;;;;;;-0.22;100.00;101629.13;4984416;28;20484;-79
2023/01/22 04:17:33;;;;;;;25.87;18.00;;;;;;;-0.27;100.00;101627.50;5003332;28;20495;-79
2023/01/22 04:20:00;;;;;;;26.17;16.43;;;;;;;-0.27;100.00;101623.09;5003829;28;20925;-80
2023/01/22 04:22:26;;;;;;;25.13;15.70;;;;;;;-0.26;100.00;101637.09;4999580;28;20539;-80
2023/01/22 04:24:53;;;;;;;24.17;15.80;;;;;;;-0.34;100.00;101633.81;5002955;28;20480;-79
2023/01/22 04:27:19;;;;;;;24.37;16.27;;;;;;;-0.25;100.00;101633.59;5001828;28;20591;-79
2023/01/22 04:29:46;;;;;;;24.80;14.30;;;;;;;-0.22;100.00;101623.88;5003258;28;20515;-79
2023/01/22 04:32:13;;;;;;;25.83;16.30;;;;;;;-0.17;100.00;101625.50;5002640;28;20547;-79
2023/01/22 04:34:41;;;;;;;24.80;16.00;;;;;;;-0.33;100.00;101618.03;5002787;28;20456;-79
2023/01/22 04:37:07;;;;;;;21.93;14.73;;;;;;;-0.23;100.00;101632.63;5002364;28;20518;-80
2023/01/22 04:39:34;;;;;;;25.10;14.77;;;;;;;-0.32;100.00;101622.34;5002886;28;20486;-80
2023/01/22 04:42:00;;;;;;;23.13;16.13;;;;;;;-0.34;100.00;101625.94;5002990;28;20570;-80
2023/01/22 04:44:27;;;;;;;20.60;15.90;;;;;;;-0.32;100.00;101630.25;5002592;28;20886;-79
2023/01/22 04:46:53;;;;;;;23.83;14.80;;;;;;;-0.40;100.00;101634.81;5001811;28;20496;-80
2023/01/22 04:49:20;;;;;;;24.57;14.93;;;;;;;-0.34;100.00;101639.06;5002589;28;20483;-79
2023/01/22 04:51:48;;;;;;;24.90;15.73;;;;;;;-0.38;100.00;101636.50;5001811;28;20594;-80
2023/01/22 04:54:15;;;;;;;27.10;16.37;;;;;;;-0.34;100.00;101637.31;5003199;28;20464;-79
2023/01/22 04:56:41;;;;;;;24.80;14.47;;;;;;;-0.40;100.00;101634.81;5001529;28;20578;-78
2023/01/22 04:59:08;;;;;;;26.70;15.67;;;;;;;-0.33;100.00;101636.41;4990955;28;21119;-78
2023/01/22 05:01:35;;;;;;;25.40;16.87;;;;;;;-0.32;100.00;101632.00;5001833;28;20511;-78
2023/01/22 05:04:02;;;;;;;25.27;15.97;;;;;;;-0.31;100.00;101625.84;5003582;28;20455;-80
2023/01/22 05:06:30;;;;;;;22.40;15.07;;;;;;;-0.23;100.00;101632.63;4991036;28;20554;-80
2023/01/22 05:08:58;;;;;;;20.87;15.10;;;;;;;-0.18;100.00;101636.94;5002280;28;20957;-80
2023/01/22 05:11:25;;;;;;;22.47;13.87;;;;;;;-0.23;100.00;101637.03;5000188;28;20578;-80
2023/01/22 05:13:53;;;;;;;23.37;14.90;;;;;;;-0.26;100.00;101635.38;4998933;28;20815;-80
2023/01/22 05:16:21;;;;;;;20.83;14.20;;;;;;;-0.42;100.00;101633.97;5001305;28;20898;-78
2023/01/22 05:18:47;;;;;;;25.77;15.87;;;;;;;-0.34;100.00;101629.41;5002893;28;20491;-80
2023/01/22 05:21:14;;;;;;;24.03;15.50;;;;;;;-0.35;100.00;101632.06;5001864;28;20548;-80
2023/01/22 05:23:42;;;;;;;24.97;15.00;;;;;;;-0.39;100.00;101626.88;5002454;28;20515;-80
2023/01/22 05:26:10;;;;;;;22.60;16.40;;;;;;;-0.38;100.00;101633.03;4996429;28;20475;-80
2023/01/22 05:28:37;;;;;;;20.83;13.80;;;;;;;-0.30;100.00;101630.22;5002321;28;20488;-80
2023/01/22 05:31:04;;;;;;;22.60;13.63;;;;;;;-0.33;100.00;101625.03;5001989;28;20507;-80
2023/01/22 05:33:31;;;;;;;17.77;13.70;;;;;;;-0.42;100.00;101624.38;5002699;28;20472;-80
2023/01/22 05:35:58;;;;;;;23.03;15.40;;;;;;;-0.38;100.00;101615.50;4988756;28;20481;-79
2023/01/22 05:38:25;;;;;;;21.53;14.03;;;;;;;-0.32;100.00;101618.88;4993786;28;20455;-80
2023/01/22 05:40:52;;;;;;;21.60;14.07;;;;;;;-0.32;100.00;101622.34;5002321;28;20487;-80
2023/01/22 05:43:20;;;;;;;22.20;14.53;;;;;;;-0.36;100.00;101625.09;4993257;28;20489;-80
2023/01/22 05:45:47;;;;;;;21.70;12.87;;;;;;;-0.35;100.00;101627.69;4995757;28;20503;-80
2023/01/22 05:48:13;;;;;;;19.90;11.63;;;;;;;-0.20;100.00;101629.09;5001951;28;20502;-79
2023/01/22 05:50:40;;;;;;;18.17;11.70;;;;;;;-0.25;100.00;101623.94;5001480;28;20488;-79
2023/01/22 05:53:08;;;;;;;18.50;12.00;;;;;;;-0.15;100.00;101635.09;5002037;28;20479;-80
2023/01/22 05:55:35;;;;;;;18.70;13.23;;;;;;;-0.27;100.00;101635.41;4998427;28;20559;-80
2023/01/22 05:58:02;;;;;;;24.80;13.97;;;;;;;-0.12;100.00;101628.88;4996504;28;20506;-79
2023/01/22 06:00:30;;;;;;;21.43;13.57;;;;;;;-0.14;100.00;101630.69;5001285;28;20467;-80
2023/01/22 06:02:57;;;;;;;22.43;14.80;;;;;;;-0.17;100.00;101629.00;5001936;28;20443;-80
2023/01/22 06:05:24;;;;;;;21.60;12.93;;;;;;;-0.18;100.00;101626.41;5001429;28;20530;-75
2023/01/22 06:07:50;;;;;;;23.27;14.80;;;;;;;-0.20;100.00;101629.94;5001814;28;20511;-74
2023/01/22 06:10:18;;;;;;;21.03;13.47;;;;;;;-0.12;100.00;101634.13;4996522;28;20476;-76
2023/01/22 06:12:44;;;;;;;19.70;12.67;;;;;;;-0.19;100.00;101633.44;5002229;28;20890;-75
2023/01/22 06:15:11;;;;;;;20.47;14.33;;;;;;;-0.15;100.00;101624.56;5001350;28;20452;-75
2023/01/22 06:17:39;;;;;;;21.73;14.30;;;;;;;-0.12;100.00;101635.03;5002132;28;20957;-75
2023/01/22 06:20:08;;;;;;;20.20;14.40;;;;;;;-0.23;100.00;101626.53;4997740;28;20445;-76
2023/01/22 06:22:34;;;;;;;22.23;14.60;;;;;;;-0.15;100.00;101639.50;4998734;28;20456;-76
2023/01/22 06:25:02;;;;;;;21.60;15.00;;;;;;;-0.20;100.00;101637.81;5000263;28;20954;-75
2023/01/22 06:27:29;;;;;;;21.40;13.37;;;;;;;-0.16;100.00;101629.88;5001409;28;20484;-76
2023/01/22 06:29:56;;;;;;;20.53;13.77;;;;;;;-0.08;100.00;101638.44;4999744;28;20436;-75
2023/01/22 06:32:22;;;;;;;24.33;15.40;;;;;;;-0.28;100.00;101631.91;4997168;28;20509;-74
2023/01/22 06:34:50;;;;;;;25.20;15.40;;;;;;;-0.17;100.00;101638.66;5000308;28;20884;-75
2023/01/22 06:37:17;;;;;;;23.27;14.07;;;;;;;-0.28;100.00;101629.28;5001061;28;20905;-74
2023/01/22 06:39:44;;;;;;;22.10;14.30;;;;;;;-0.13;100.00;101628.03;5001938;28;20506;-75
2023/01/22 06:42:10;;;;;;;26.70;15.00;;;;;;;-0.13;100.00;101635.06;5001688;28;20487;-75
2023/01/22 06:44:37;;;;;;;25.30;16.50;;;;;;;-0.20;100.00;101647.47;5001807;28;20435;-73
2023/01/22 06:47:04;;;;;;;24.57;15.97;;;;;;;-0.34;100.00;101657.47;5003859;28;20479;-74
2023/01/22 06:49:30;;;;;;;21.97;15.10;;;;;;;-0.26;100.00;101658.13;5005979;28;20444;-73
2023/01/22 06:51:58;;;;;;;24.63;14.87;;;;;;;-0.26;100.00;101658.13;5004277;28;20499;-74
2023/01/22 06:54:25;;;;;;;26.27;16.77;;;;;;;-0.22;100.00;101652.78;5005085;28;20496;-74
2023/01/22 06:56:52;;;;;;;28.60;15.53;;;;;;;-0.20;100.00;101660.63;5004168;28;20476;-74
2023/01/22 06:59:18;;;;;;;23.57;15.17;;;;;;;-0.24;100.00;101666.88;5005887;28;20443;-74
2023/01/22 07:01:45;;;;;;;23.33;15.47;;;;;;;-0.23;100.00;101661.53;5004541;28;20542;-74
2023/01/22 07:04:12;;;;;;;31.03;17.83;;;;;;;-0.31;100.00;101654.75;5005079;28;20502;-73
2023/01/22 07:06:38;;;;;;;25.33;17.00;;;;;;;-0.30;100.00;101665.22;5002986;28;20487;-76
2023/01/22 07:09:07;;;;;;;27.87;16.87;;;;;;;-0.25;100.00;101671.25;4996787;28;20461;-73
2023/01/22 07:11:33;;;;;;;27.57;17.13;;;;;;;-0.33;100.00;101660.06;4997751;28;20511;-74
2023/01/22 07:14:01;;;;;;;34.80;17.80;;;;;;;-0.22;100.00;101670.31;4995527;28;20444;-73
2023/01/22 07:16:28;;;;;;;25.30;15.87;;;;;;;-0.24;100.00;101680.00;4995296;28;20490;-74
2023/01/22 07:18:55;;;;;;;27.77;18.00;;;;;;;-0.33;100.00;101674.94;4996299;28;20678;-88
2023/01/22 07:21:21;;;;;;;31.63;18.00;;;;;;;-0.14;100.00;101675.38;4993949;28;20508;-89
2023/01/22 07:23:48;;;;;;;29.30;17.47;;;;;;;-0.10;100.00;101682.31;4995932;28;20512;-74
2023/01/22 07:26:16;;;;;;;32.67;17.37;;;;;;;-0.16;100.00;101675.41;5002530;28;20480;-72
2023/01/22 07:28:43;;;;;;;29.83;18.60;;;;;;;-0.24;100.00;101687.91;5004559;28;20527;-72
2023/01/22 07:31:10;;;;;;;31.60;19.57;;;;;;;-0.18;100.00;101689.50;4996035;28;20535;-73
2023/01/22 07:33:37;;;;;;;33.47;20.00;;;;;;;-0.24;100.00;101693.16;4994114;28;20468;-72
2023/01/22 07:36:04;;;;;;;35.93;20.33;;;;;;;-0.14;100.00;101691.16;5001421;28;20508;-73
2023/01/22 07:38:30;;;;;;;31.47;19.43;;;;;;;-0.14;100.00;101688.53;5004554;28;20483;-72
2023/01/22 07:41:00;;;;;;;31.13;18.73;;;;;;;-0.13;100.00;101691.13;5004005;28;20570;-72
2023/01/22 07:43:28;;;;;;;30.40;19.67;;;;;;;-0.18;100.00;101693.00;5005037;28;21000;-72
2023/01/22 07:45:56;;;;;;;33.40;20.03;;;;;;;-0.20;100.00;101700.06;4998943;28;20554;-72
2023/01/22 07:48:23;;;;;;;32.07;20.00;;;;;;;-0.07;100.00;101701.50;4997803;28;20850;-73
2023/01/22 07:50:50;;;;;;;31.10;18.50;;;;;;;-0.19;100.00;101704.41;4995168;28;20484;-72
2023/01/22 07:53:17;;;;;;;32.13;19.97;;;;;;;-0.16;100.00;101703.47;4994381;28;20524;-72
2023/01/22 07:55:43;;;;;;;36.93;22.70;;;;;;;-0.17;100.00;101707.88;4995764;28;20563;-72
2023/01/22 07:58:11;;;;;;;29.33;16.63;;;;;;;-0.09;100.00;101699.78;4999236;28;21032;-73
2023/01/22 08:00:39;;;;;;;29.80;18.93;;;;;;;-0.12;100.00;101708.63;4997224;28;20546;-72
2023/01/22 08:03:09;;;;;;;32.10;18.43;;;;;;;-0.12;100.00;101706.00;4997709;28;20504;-72
2023/01/22 08:05:35;;;;;;;30.63;17.90;;;;;;;0.05;100.00;101704.72;5001590;28;20476;-72
2023/01/22 08:08:02;;;;;;;31.67;20.20;;;;;;;-0.09;100.00;101705.91;4999053;28;20524;-72
2023/01/22 08:10:29;;;;;;;29.93;17.90;;;;;;;0.09;100.00;101719.53;4998874;28;20499;-72
2023/01/22 08:12:55;;;;;;;31.83;19.00;;;;;;;-0.08;100.00;101718.16;5002031;28;20513;-72
2023/01/22 08:15:22;;;;;;;33.43;19.37;;;;;;;0.25;100.00;101715.59;4994071;28;20478;-73
2023/01/22 08:17:50;;;;;;;29.93;19.30;;;;;;;0.28;100.00;101712.91;4995240;28;20511;-72
2023/01/22 08:20:17;;;;;;;33.20;19.87;;;;;;;0.08;100.00;101713.38;4991793;28;20452;-72
2023/01/22 08:22:44;;;;;;;33.73;19.60;;;;;;;0.11;100.00;101715.94;4997515;28;20451;-72
2023/01/22 08:25:11;;;;;;;34.60;20.30;;;;;;;0.04;100.00;101710.91;4996055;28;20502;-72
2023/01/22 08:27:37;;;;;;;32.43;19.37;;;;;;;0.12;100.00;101725.59;4996347;28;20464;-72
2023/01/22 08:30:05;;;;;;;34.60;18.73;;;;;;;0.24;100.00;101731.44;4994616;28;20576;-71
2023/01/22 08:32:31;;;;;;;34.70;21.10;;;;;;;-0.04;100.00;101742.59;4996151;28;20480;-71
2023/01/22 08:34:59;;;;;;;30.90;19.53;;;;;;;-0.06;100.00;101747.91;4995472;28;20472;-71
2023/01/22 08:37:26;;;;;;;33.70;20.13;;;;;;;0.06;100.00;101744.13;4995525;28;20551;-71
2023/01/22 08:39:52;;;;;;;37.23;20.77;;;;;;;0.02;100.00;101738.97;4993102;28;20565;-72
2023/01/22 08:42:19;;;;;;;33.83;20.77;;;;;;;0.11;100.00;101741.41;4989901;28;20505;-71
2023/01/22 08:44:46;;;;;;;33.50;20.07;;;;;;;0.01;100.00;101740.75;4987776;28;20444;-72
2023/01/22 08:47:12;;;;;;;44.20;21.80;;;;;;;-0.05;100.00;101740.91;4996418;28;20482;-73
2023/01/22 08:49:39;;;;;;;31.93;18.97;;;;;;;0.03;100.00;101736.31;4995998;28;20550;-72
2023/01/22 08:52:07;;;;;;;35.77;22.53;;;;;;;-0.05;100.00;101736.50;5002566;28;20500;-72
2023/01/22 08:54:33;;;;;;;38.07;19.57;;;;;;;0.16;100.00;101736.88;4987819;28;20814;-72
2023/01/22 08:57:00;;;;;;;39.77;20.93;;;;;;;0.07;100.00;101744.97;4995461;28;20540;-72
2023/01/22 08:59:27;;;;;;;35.40;21.23;;;;;;;0.11;100.00;101751.91;5001019;28;20476;-72
2023/01/22 09:01:53;;;;;;;38.03;21.20;;;;;;;0.20;100.00;101746.44;4986159;28;21073;-73
2023/01/22 09:04:20;;;;;;;34.63;20.00;;;;;;;0.25;100.00;101743.69;4984661;28;20468;-73
2023/01/22 09:06:46;;;;;;;35.70;20.37;;;;;;;0.35;100.00;101747.81;5000127;28;20515;-73
2023/01/22 09:09:16;;;;;;;30.07;20.10;;;;;;;0.17;100.00;101743.84;5002540;28;20479;-73
2023/01/22 09:11:45;;;;;;;30.93;17.53;;;;;;;0.43;100.00;101739.72;5001672;28;20489;-72
2023/01/22 09:14:12;;;;;;;34.70;19.63;;;;;;;0.49;100.00;101736.94;5003255;28;20440;-72
2023/01/22 09:16:39;;;;;;;34.20;20.00;;;;;;;0.51;100.00;101740.41;4991523;28;20888;-73
2023/01/22 09:19:06;;;;;;;29.40;18.00;;;;;;;0.65;100.00;101737.41;4994085;28;20503;-73
2023/01/22 09:21:36;;;;;;;31.37;18.00;;;;;;;0.54;100.00;101735.91;4993860;28;20500;-72
2023/01/22 09:24:02;;;;;;;33.80;17.57;;;;;;;0.67;100.00;101739.09;4992707;28;20490;-72
2023/01/22 09:26:32;;;;;;;35.03;19.20;;;;;;;0.62;100.00;101735.72;4994620;28;20488;-73
2023/01/22 09:28:59;;;;;;;31.83;18.70;;;;;;;0.72;100.00;101738.97;4991558;28;20478;-72
2023/01/22 09:31:26;;;;;;;32.67;19.60;;;;;;;0.85;100.00;101740.38;4993036;28;20476;-72
2023/01/22 09:33:54;;;;;;;29.63;17.93;;;;;;;0.83;100.00;101752.69;4994104;28;20467;-72
2023/01/22 09:36:21;;;;;;;32.80;19.30;;;;;;;0.73;100.00;101752.09;4992309;28;20490;-72
2023/01/22 09:38:48;;;;;;;29.33;18.70;;;;;;;0.80;100.00;101752.81;4992381;28;20516;-73
2023/01/22 09:41:19;;;;;;;33.23;19.60;;;;;;;0.77;100.00;101755.50;4990366;28;20464;-73
2023/01/22 09:43:51;;;;;;;28.93;18.13;;;;;;;0.62;100.00;101756.75;5000039;28;20502;-72
2023/01/22 09:46:20;;;;;;;29.77;18.00;;;;;;;0.68;100.00;101753.13;4997911;28;20852;-72
2023/01/22 09:48:51;;;;;;;29.80;17.50;;;;;;;0.59;100.00;101758.59;4998880;28;20479;-77
2023/01/22 09:51:18;;;;;;;32.00;19.40;;;;;;;0.70;100.00;101759.22;4995880;28;20528;-73
2023/01/22 09:53:46;;;;;;;36.67;19.33;;;;;;;0.66;100.00;101761.06;4992645;28;20515;-73
2023/01/22 09:56:20;;;;;;;34.63;17.70;;;;;;;0.47;100.00;101770.31;4993225;28;20511;-72
2023/01/22 09:58:50;;;;;;;37.07;20.67;;;;;;;0.44;100.00;101775.66;4989669;28;20463;-72
2023/01/22 10:01:17;;;;;;;31.20;18.13;;;;;;;0.30;100.00;101763.72;4993352;28;21368;-73
2023/01/22 10:03:46;;;;;;;33.33;19.40;;;;;;;0.46;100.00;101769.44;4994082;28;20535;-72
2023/01/22 10:06:14;;;;;;;34.50;20.70;;;;;;;0.52;100.00;101760.53;4993277;28;20538;-72
2023/01/22 10:08:54;;;;;;;36.87;19.97;;;;;;;0.56;100.00;101755.16;4994793;28;20492;-73
2023/01/22 10:11:20;;;;;;;30.03;18.53;;;;;;;0.47;100.00;101754.53;4996859;28;20518;-72
2023/01/22 10:13:50;;;;;;;34.97;21.83;;;;;;;0.49;100.00;101755.38;4993985;28;20505;-72
2023/01/22 10:16:16;;;;;;;35.60;22.03;;;;;;;0.38;100.00;101745.09;4991543;28;20475;-72
2023/01/22 10:18:46;;;;;;;32.37;19.07;;;;;;;0.49;100.00;101758.00;5002226;28;20452;-72
2023/01/22 10:21:19;;;;;;;32.93;19.40;;;;;;;0.68;100.00;101759.25;5002110;28;21004;-72
2023/01/22 10:23:47;;;;;;;34.13;21.57;;;;;;;0.60;100.00;101755.09;5004723;28;21963;-71
2023/01/22 10:26:17;;;;;;;34.40;20.07;;;;;;;0.62;100.00;101748.88;5005223;28;20490;-71
2023/01/22 10:28:45;;;;;;;34.73;19.27;;;;;;;0.74;100.00;101745.06;5004669;28;20487;-72
2023/01/22 10:31:25;;;;;;;31.97;19.17;;;;;;;0.68;100.00;101748.72;5004192;28;22452;-72
2023/01/22 10:33:56;;;;;;;36.43;20.17;;;;;;;0.55;100.00;101747.31;5002159;28;20543;-73
2023/01/22 10:36:23;;;;;;;35.90;21.90;;;;;;;0.76;100.00;101743.25;5004743;28;20490;-70
2023/01/22 10:38:50;;;;;;;36.53;20.83;;;;;;;0.70;100.00;101746.06;5001569;28;20506;-70
2023/01/22 10:41:17;;;;;;;35.93;19.63;;;;;;;0.78;100.00;101743.19;5003879;28;20485;-70
2023/01/22 10:43:44;;;;;;;36.67;22.00;;;;;;;0.75;100.00;101742.38;4996486;28;20516;-70
2023/01/22 10:46:17;;;;;;;35.80;21.77;;;;;;;0.77;100.00;101746.75;4990696;28;20480;-73
2023/01/22 10:48:45;;;;;;;37.23;20.43;;;;;;;0.82;100.00;101751.00;5002015;28;20491;-70
2023/01/22 10:51:14;;;;;;;39.20;21.10;;;;;;;0.83;100.00;101752.69;4994697;28;20504;-71
2023/01/22 10:53:46;;;;;;;37.37;22.27;;;;;;;0.79;100.00;101753.69;5003001;28;20487;-70
2023/01/22 10:56:14;;;;;;;35.17;21.43;;;;;;;0.77;100.00;101746.75;5004167;28;20926;-70
2023/01/22 10:58:46;;;;;;;35.33;19.77;;;;;;;0.94;100.00;101747.16;5004745;28;20807;-70
2023/01/22 11:01:27;;;;;;;39.27;21.93;;;;;;;1.15;100.00;101745.69;4997295;28;20555;-71
2023/01/22 11:03:55;;;;;;;36.53;21.93;;;;;;;0.99;100.00;101744.38;4994422;28;20477;-70
2023/01/22 11:06:25;;;;;;;36.97;21.30;;;;;;;1.20;100.00;101740.28;5002507;28;20518;-73
2023/01/22 11:08:58;;;;;;;36.90;21.30;;;;;;;1.04;100.00;101746.00;4999576;28;20468;-70
2023/01/22 11:11:29;;;;;;;33.70;21.40;;;;;;;0.59;100.00;101738.44;5003888;28;20610;-73
2023/01/22 11:14:00;;;;;;;35.73;20.97;;;;;;;0.81;100.00;101743.97;5003272;28;20531;-71
2023/01/22 11:16:28;;;;;;;48.23;23.30;;;;;;;0.86;100.00;101736.81;5004294;28;20527;-71